sensor_id;sensor_type;location;lat;lon;timestamp;temperature;humidity
5492;DHT22;2768;53.540;10.224;2022-12-05T00:01:57;5.60;99.90
5492;DHT22;2768;53.540;10.224;2022-12-05T00:07:51;5.60;99.90
5492;DHT22;2768;53.540;10.224;2022-12-05T00:13:46;5.60;99.90
5492;DHT22;2768;53.540;10.224;2022-12-05T00:19:40;5.60;99.90
5492;DHT22;2768;53.540;10.224;2022-12-05T00:25:35;5.60;99.90
5492;DHT22;2768;53.540;10.224;2022-12-05T00:31:29;5.60;99.90
5492;DHT22;2768;53.540;10.224;2022-12-05T00:37:23;5.60;99.90
5492;DHT22;2768;53.540;10.224;2022-12-05T00:43:17;5.60;99.90
5492;DHT22;2768;53.540;10.224;2022-12-05T00:49:11;5.60;99.90
5492;DHT22;2768;53.540;10.224;2022-12-05T00:55:05;5.60;99.90
5492;DHT22;2768;53.540;10.224;2022-12-05T01:01:05;5.60;99.90
5492;DHT22;2768;53.540;10.224;2022-12-05T01:07:01;5.60;99.90
5492;DHT22;2768;53.540;10.224;2022-12-05T01:12:55;5.60;99.90
5492;DHT22;2768;53.540;10.224;2022-12-05T01:18:48;5.60;99.90
5492;DHT22;2768;53.540;10.224;2022-12-05T01:24:43;5.60;99.90
5492;DHT22;2768;53.540;10.224;2022-12-05T01:30:37;5.70;99.90
5492;DHT22;2768;53.540;10.224;2022-12-05T01:36:31;5.70;99.90
5492;DHT22;2768;53.540;10.224;2022-12-05T01:42:26;5.70;99.90
5492;DHT22;2768;53.540;10.224;2022-12-05T01:48:23;5.70;99.90
5492;DHT22;2768;53.540;10.224;2022-12-05T01:54:19;5.70;99.90
5492;DHT22;2768;53.540;10.224;2022-12-05T02:00:17;5.70;99.90
5492;DHT22;2768;53.540;10.224;2022-12-05T02:06:11;5.70;99.90
5492;DHT22;2768;53.540;10.224;2022-12-05T02:12:05;5.80;99.90
5492;DHT22;2768;53.540;10.224;2022-12-05T02:18:09;5.80;99.90
5492;DHT22;2768;53.540;10.224;2022-12-05T02:24:34;5.80;99.90
5492;DHT22;2768;53.540;10.224;2022-12-05T02:30:37;5.80;99.90
5492;DHT22;2768;53.540;10.224;2022-12-05T02:36:36;5.80;99.90
5492;DHT22;2768;53.540;10.224;2022-12-05T02:42:37;5.80;99.90
5492;DHT22;2768;53.540;10.224;2022-12-05T02:48:35;5.70;99.90
5492;DHT22;2768;53.540;10.224;2022-12-05T02:54:32;5.80;99.90
5492;DHT22;2768;53.540;10.224;2022-12-05T03:00:27;5.80;99.90
5492;DHT22;2768;53.540;10.224;2022-12-05T03:06:26;5.80;99.90
5492;DHT22;2768;53.540;10.224;2022-12-05T03:12:21;5.80;99.90
5492;DHT22;2768;53.540;10.224;2022-12-05T03:18:18;5.80;99.90
5492;DHT22;2768;53.540;10.224;2022-12-05T03:24:16;5.80;99.90
5492;DHT22;2768;53.540;10.224;2022-12-05T03:30:13;5.90;99.90
5492;DHT22;2768;53.540;10.224;2022-12-05T03:36:11;5.90;99.90
5492;DHT22;2768;53.540;10.224;2022-12-05T03:42:12;5.90;99.90
5492;DHT22;2768;53.540;10.224;2022-12-05T03:48:10;5.90;99.90
5492;DHT22;2768;53.540;10.224;2022-12-05T03:54:07;6.00;99.90
5492;DHT22;2768;53.540;10.224;2022-12-05T04:00:06;6.00;99.90
5492;DHT22;2768;53.540;10.224;2022-12-05T04:06:02;6.00;99.90
5492;DHT22;2768;53.540;10.224;2022-12-05T04:12:01;5.90;99.90
5492;DHT22;2768;53.540;10.224;2022-12-05T04:17:58;6.00;99.90
5492;DHT22;2768;53.540;10.224;2022-12-05T04:23:52;6.00;99.90
5492;DHT22;2768;53.540;10.224;2022-12-05T04:30:03;6.00;99.90
5492;DHT22;2768;53.540;10.224;2022-12-05T04:36:03;6.00;99.90
5492;DHT22;2768;53.540;10.224;2022-12-05T04:42:00;6.00;99.90
5492;DHT22;2768;53.540;10.224;2022-12-05T04:47:57;6.00;99.90
5492;DHT22;2768;53.540;10.224;2022-12-05T04:53:58;6.00;99.90
5492;DHT22;2768;53.540;10.224;2022-12-05T04:59:54;5.90;99.90
5492;DHT22;2768;53.540;10.224;2022-12-05T05:05:50;5.90;99.90
5492;DHT22;2768;53.540;10.224;2022-12-05T05:11:48;5.90;99.90
5492;DHT22;2768;53.540;10.224;2022-12-05T05:17:41;6.00;99.90
5492;DHT22;2768;53.540;10.224;2022-12-05T05:23:35;5.90;99.90
5492;DHT22;2768;53.540;10.224;2022-12-05T05:29:30;6.00;99.90
5492;DHT22;2768;53.540;10.224;2022-12-05T05:35:23;6.00;99.90
5492;DHT22;2768;53.540;10.224;2022-12-05T05:41:19;6.00;99.90
5492;DHT22;2768;53.540;10.224;2022-12-05T05:47:16;6.00;99.90
5492;DHT22;2768;53.540;10.224;2022-12-05T05:53:09;6.00;99.90
5492;DHT22;2768;53.540;10.224;2022-12-05T05:59:04;6.00;99.90
5492;DHT22;2768;53.540;10.224;2022-12-05T06:04:59;6.00;99.90
5492;DHT22;2768;53.540;10.224;2022-12-05T06:10:52;6.00;99.90
5492;DHT22;2768;53.540;10.224;2022-12-05T06:16:46;6.00;99.90
5492;DHT22;2768;53.540;10.224;2022-12-05T06:22:41;6.00;99.90
5492;DHT22;2768;53.540;10.224;2022-12-05T06:28:34;6.00;99.90
5492;DHT22;2768;53.540;10.224;2022-12-05T06:34:28;6.00;99.90
5492;DHT22;2768;53.540;10.224;2022-12-05T06:40:25;6.00;99.90
5492;DHT22;2768;53.540;10.224;2022-12-05T06:46:19;6.00;99.90
5492;DHT22;2768;53.540;10.224;2022-12-05T06:52:13;5.90;99.90
5492;DHT22;2768;53.540;10.224;2022-12-05T06:58:08;5.90;99.90
5492;DHT22;2768;53.540;10.224;2022-12-05T07:04:02;5.90;99.90
5492;DHT22;2768;53.540;10.224;2022-12-05T07:09:56;6.00;99.90
5492;DHT22;2768;53.540;10.224;2022-12-05T07:15:51;6.00;99.90
5492;DHT22;2768;53.540;10.224;2022-12-05T07:21:45;5.90;99.90
5492;DHT22;2768;53.540;10.224;2022-12-05T07:27:38;5.90;99.90
5492;DHT22;2768;53.540;10.224;2022-12-05T07:33:33;5.90;99.90
5492;DHT22;2768;53.540;10.224;2022-12-05T07:39:27;5.90;99.90
5492;DHT22;2768;53.540;10.224;2022-12-05T07:45:21;5.90;99.90
5492;DHT22;2768;53.540;10.224;2022-12-05T07:51:16;5.80;99.90
5492;DHT22;2768;53.540;10.224;2022-12-05T07:57:10;5.80;99.90
5492;DHT22;2768;53.540;10.224;2022-12-05T08:03:03;5.80;99.90
5492;DHT22;2768;53.540;10.224;2022-12-05T08:08:58;5.80;99.90
5492;DHT22;2768;53.540;10.224;2022-12-05T08:14:52;5.80;99.90
5492;DHT22;2768;53.540;10.224;2022-12-05T08:20:45;5.80;99.90
5492;DHT22;2768;53.540;10.224;2022-12-05T08:26:40;5.80;99.90
5492;DHT22;2768;53.540;10.224;2022-12-05T08:32:34;5.80;99.90
5492;DHT22;2768;53.540;10.224;2022-12-05T08:38:27;5.70;99.90
5492;DHT22;2768;53.540;10.224;2022-12-05T08:44:22;5.70;99.90
5492;DHT22;2768;53.540;10.224;2022-12-05T08:50:16;5.70;99.90
5492;DHT22;2768;53.540;10.224;2022-12-05T08:56:10;5.80;99.90
5492;DHT22;2768;53.540;10.224;2022-12-05T09:02:05;5.70;99.90
5492;DHT22;2768;53.540;10.224;2022-12-05T09:07:58;5.70;99.90
5492;DHT22;2768;53.540;10.224;2022-12-05T09:13:54;5.70;99.90
5492;DHT22;2768;53.540;10.224;2022-12-05T09:19:51;5.70;99.90
5492;DHT22;2768;53.540;10.224;2022-12-05T09:25:52;5.70;99.90
5492;DHT22;2768;53.540;10.224;2022-12-05T09:31:47;5.70;99.90
5492;DHT22;2768;53.540;10.224;2022-12-05T09:37:44;5.80;99.90
5492;DHT22;2768;53.540;10.224;2022-12-05T09:43:44;5.70;99.90
5492;DHT22;2768;53.540;10.224;2022-12-05T09:49:46;5.70;99.90
5492;DHT22;2768;53.540;10.224;2022-12-05T09:55:46;5.70;99.90
5492;DHT22;2768;53.540;10.224;2022-12-05T10:01:45;5.80;99.90
5492;DHT22;2768;53.540;10.224;2022-12-05T10:07:48;5.80;99.90
5492;DHT22;2768;53.540;10.224;2022-12-05T10:13:52;5.80;99.90
5492;DHT22;2768;53.540;10.224;2022-12-05T10:19:50;5.80;99.90
5492;DHT22;2768;53.540;10.224;2022-12-05T10:25:45;5.80;99.90
5492;DHT22;2768;53.540;10.224;2022-12-05T10:31:40;5.90;99.90
5492;DHT22;2768;53.540;10.224;2022-12-05T10:37:35;5.90;99.90
5492;DHT22;2768;53.540;10.224;2022-12-05T10:43:30;5.90;99.90
5492;DHT22;2768;53.540;10.224;2022-12-05T10:49:26;5.90;99.90
5492;DHT22;2768;53.540;10.224;2022-12-05T10:55:20;5.90;99.90
5492;DHT22;2768;53.540;10.224;2022-12-05T11:01:14;5.80;99.90
5492;DHT22;2768;53.540;10.224;2022-12-05T11:07:23;5.90;99.90
5492;DHT22;2768;53.540;10.224;2022-12-05T11:13:24;5.90;99.90
5492;DHT22;2768;53.540;10.224;2022-12-05T11:19:25;5.90;99.90
5492;DHT22;2768;53.540;10.224;2022-12-05T11:25:25;5.90;99.90
5492;DHT22;2768;53.540;10.224;2022-12-05T11:31:25;5.90;99.90
5492;DHT22;2768;53.540;10.224;2022-12-05T11:37:23;5.90;99.90
5492;DHT22;2768;53.540;10.224;2022-12-05T11:43:34;5.90;99.90
5492;DHT22;2768;53.540;10.224;2022-12-05T11:49:43;5.90;99.90
5492;DHT22;2768;53.540;10.224;2022-12-05T11:55:44;5.90;99.90
5492;DHT22;2768;53.540;10.224;2022-12-05T12:01:47;5.90;99.90
5492;DHT22;2768;53.540;10.224;2022-12-05T12:07:54;5.90;99.90
5492;DHT22;2768;53.540;10.224;2022-12-05T12:13:58;5.90;99.90
5492;DHT22;2768;53.540;10.224;2022-12-05T12:20:15;5.90;99.90
5492;DHT22;2768;53.540;10.224;2022-12-05T12:26:12;5.90;99.90
5492;DHT22;2768;53.540;10.224;2022-12-05T12:32:19;5.90;99.90
5492;DHT22;2768;53.540;10.224;2022-12-05T12:38:48;5.90;99.90
5492;DHT22;2768;53.540;10.224;2022-12-05T12:45:05;5.90;99.90
5492;DHT22;2768;53.540;10.224;2022-12-05T12:51:04;5.90;99.90
5492;DHT22;2768;53.540;10.224;2022-12-05T12:57:09;5.90;99.90
5492;DHT22;2768;53.540;10.224;2022-12-05T13:03:18;5.90;99.90
5492;DHT22;2768;53.540;10.224;2022-12-05T13:09:17;5.90;99.90
5492;DHT22;2768;53.540;10.224;2022-12-05T13:15:15;5.90;99.90
5492;DHT22;2768;53.540;10.224;2022-12-05T13:21:11;5.90;99.90
5492;DHT22;2768;53.540;10.224;2022-12-05T13:27:06;5.90;99.90
5492;DHT22;2768;53.540;10.224;2022-12-05T13:33:06;5.90;99.90
5492;DHT22;2768;53.540;10.224;2022-12-05T13:39:02;5.90;99.90
5492;DHT22;2768;53.540;10.224;2022-12-05T13:45:16;5.90;99.90
5492;DHT22;2768;53.540;10.224;2022-12-05T13:51:21;5.90;99.90
5492;DHT22;2768;53.540;10.224;2022-12-05T13:57:44;5.90;99.90
5492;DHT22;2768;53.540;10.224;2022-12-05T14:03:55;5.90;99.90
5492;DHT22;2768;53.540;10.224;2022-12-05T14:09:52;5.90;99.90
5492;DHT22;2768;53.540;10.224;2022-12-05T14:15:48;5.90;99.90
5492;DHT22;2768;53.540;10.224;2022-12-05T14:21:48;5.90;99.90
5492;DHT22;2768;53.540;10.224;2022-12-05T14:27:52;5.90;99.90
5492;DHT22;2768;53.540;10.224;2022-12-05T14:34:12;5.80;99.90
5492;DHT22;2768;53.540;10.224;2022-12-05T14:40:17;5.80;99.90
5492;DHT22;2768;53.540;10.224;2022-12-05T14:46:22;5.80;99.90
5492;DHT22;2768;53.540;10.224;2022-12-05T14:52:19;5.80;99.90
5492;DHT22;2768;53.540;10.224;2022-12-05T14:58:17;5.80;99.90
5492;DHT22;2768;53.540;10.224;2022-12-05T15:04:18;5.80;99.90
5492;DHT22;2768;53.540;10.224;2022-12-05T15:10:16;5.80;99.90
5492;DHT22;2768;53.540;10.224;2022-12-05T15:16:17;5.80;99.90
5492;DHT22;2768;53.540;10.224;2022-12-05T15:22:13;5.70;99.90
5492;DHT22;2768;53.540;10.224;2022-12-05T15:28:18;5.70;99.90
5492;DHT22;2768;53.540;10.224;2022-12-05T15:34:15;5.80;99.90
5492;DHT22;2768;53.540;10.224;2022-12-05T15:40:14;5.70;99.90
5492;DHT22;2768;53.540;10.224;2022-12-05T15:46:18;5.70;99.90
5492;DHT22;2768;53.540;10.224;2022-12-05T15:52:24;5.70;99.90
5492;DHT22;2768;53.540;10.224;2022-12-05T15:58:24;5.70;99.90
5492;DHT22;2768;53.540;10.224;2022-12-05T16:04:22;5.60;99.90
5492;DHT22;2768;53.540;10.224;2022-12-05T16:10:22;5.60;99.90
5492;DHT22;2768;53.540;10.224;2022-12-05T16:16:25;5.60;99.90
5492;DHT22;2768;53.540;10.224;2022-12-05T16:22:24;5.60;99.90
5492;DHT22;2768;53.540;10.224;2022-12-05T16:28:20;5.60;99.90
5492;DHT22;2768;53.540;10.224;2022-12-05T16:34:15;5.50;99.90
5492;DHT22;2768;53.540;10.224;2022-12-05T16:40:20;5.50;99.90
5492;DHT22;2768;53.540;10.224;2022-12-05T16:46:43;5.50;99.90
5492;DHT22;2768;53.540;10.224;2022-12-05T16:52:38;5.50;99.90
5492;DHT22;2768;53.540;10.224;2022-12-05T16:58:33;5.50;99.90
5492;DHT22;2768;53.540;10.224;2022-12-05T17:04:27;5.50;99.90
5492;DHT22;2768;53.540;10.224;2022-12-05T17:10:22;5.50;99.90
5492;DHT22;2768;53.540;10.224;2022-12-05T17:16:17;5.50;99.90
5492;DHT22;2768;53.540;10.224;2022-12-05T17:22:13;5.50;99.90
5492;DHT22;2768;53.540;10.224;2022-12-05T17:28:10;5.40;99.90
5492;DHT22;2768;53.540;10.224;2022-12-05T17:34:11;5.40;99.90
5492;DHT22;2768;53.540;10.224;2022-12-05T17:40:06;5.50;99.90
5492;DHT22;2768;53.540;10.224;2022-12-05T17:46:01;5.40;99.90
5492;DHT22;2768;53.540;10.224;2022-12-05T17:51:55;5.40;99.90
5492;DHT22;2768;53.540;10.224;2022-12-05T17:58:10;5.50;99.90
5492;DHT22;2768;53.540;10.224;2022-12-05T18:04:08;5.40;99.90
5492;DHT22;2768;53.540;10.224;2022-12-05T18:10:14;5.40;99.90
5492;DHT22;2768;53.540;10.224;2022-12-05T18:16:08;5.40;99.90
5492;DHT22;2768;53.540;10.224;2022-12-05T18:22:03;5.40;99.90
5492;DHT22;2768;53.540;10.224;2022-12-05T18:27:57;5.40;99.90
5492;DHT22;2768;53.540;10.224;2022-12-05T18:33:50;5.40;99.90
5492;DHT22;2768;53.540;10.224;2022-12-05T18:39:45;5.40;99.90
5492;DHT22;2768;53.540;10.224;2022-12-05T18:45:38;5.40;99.90
5492;DHT22;2768;53.540;10.224;2022-12-05T18:51:33;5.30;99.90
5492;DHT22;2768;53.540;10.224;2022-12-05T18:57:28;5.30;99.90
5492;DHT22;2768;53.540;10.224;2022-12-05T19:03:21;5.40;99.90
5492;DHT22;2768;53.540;10.224;2022-12-05T19:09:16;5.30;99.90
5492;DHT22;2768;53.540;10.224;2022-12-05T19:15:11;5.30;99.90
5492;DHT22;2768;53.540;10.224;2022-12-05T19:21:06;5.30;99.90
5492;DHT22;2768;53.540;10.224;2022-12-05T19:26:59;5.30;99.90
5492;DHT22;2768;53.540;10.224;2022-12-05T19:32:55;5.30;99.90
5492;DHT22;2768;53.540;10.224;2022-12-05T19:38:49;5.30;99.90
5492;DHT22;2768;53.540;10.224;2022-12-05T19:44:43;5.20;99.90
5492;DHT22;2768;53.540;10.224;2022-12-05T19:50:39;5.30;99.90
5492;DHT22;2768;53.540;10.224;2022-12-05T19:56:34;5.30;99.90
5492;DHT22;2768;53.540;10.224;2022-12-05T20:02:28;5.30;99.90
5492;DHT22;2768;53.540;10.224;2022-12-05T20:08:23;5.20;99.90
5492;DHT22;2768;53.540;10.224;2022-12-05T20:14:18;5.20;99.90
5492;DHT22;2768;53.540;10.224;2022-12-05T20:20:11;5.20;99.90
5492;DHT22;2768;53.540;10.224;2022-12-05T20:26:09;5.20;99.90
5492;DHT22;2768;53.540;10.224;2022-12-05T20:32:03;5.20;99.90
5492;DHT22;2768;53.540;10.224;2022-12-05T20:37:56;5.20;99.90
5492;DHT22;2768;53.540;10.224;2022-12-05T20:43:55;5.20;99.90
5492;DHT22;2768;53.540;10.224;2022-12-05T20:49:48;5.20;99.90
5492;DHT22;2768;53.540;10.224;2022-12-05T20:55:41;5.20;99.90
5492;DHT22;2768;53.540;10.224;2022-12-05T21:01:37;5.10;99.90
5492;DHT22;2768;53.540;10.224;2022-12-05T21:07:30;5.10;99.90
5492;DHT22;2768;53.540;10.224;2022-12-05T21:13:24;5.10;99.90
5492;DHT22;2768;53.540;10.224;2022-12-05T21:19:18;5.20;99.90
5492;DHT22;2768;53.540;10.224;2022-12-05T21:25:13;5.10;99.90
5492;DHT22;2768;53.540;10.224;2022-12-05T21:31:08;5.10;99.90
5492;DHT22;2768;53.540;10.224;2022-12-05T21:37:04;5.10;99.90
5492;DHT22;2768;53.540;10.224;2022-12-05T21:42:58;5.10;99.90
5492;DHT22;2768;53.540;10.224;2022-12-05T21:48:51;5.10;99.90
5492;DHT22;2768;53.540;10.224;2022-12-05T21:54:47;5.10;99.90
5492;DHT22;2768;53.540;10.224;2022-12-05T22:00:41;5.10;99.90
5492;DHT22;2768;53.540;10.224;2022-12-05T22:06:34;5.00;99.90
5492;DHT22;2768;53.540;10.224;2022-12-05T22:12:31;5.00;99.90
5492;DHT22;2768;53.540;10.224;2022-12-05T22:18:25;5.10;99.90
5492;DHT22;2768;53.540;10.224;2022-12-05T22:24:19;5.10;99.90
5492;DHT22;2768;53.540;10.224;2022-12-05T22:30:14;5.10;99.90
5492;DHT22;2768;53.540;10.224;2022-12-05T22:36:10;5.10;99.90
5492;DHT22;2768;53.540;10.224;2022-12-05T22:42:03;5.10;99.90
5492;DHT22;2768;53.540;10.224;2022-12-05T22:47:58;5.10;99.90
5492;DHT22;2768;53.540;10.224;2022-12-05T22:53:52;5.10;99.90
5492;DHT22;2768;53.540;10.224;2022-12-05T22:59:46;5.10;99.90
5492;DHT22;2768;53.540;10.224;2022-12-05T23:05:42;5.10;99.90
5492;DHT22;2768;53.540;10.224;2022-12-05T23:11:35;5.10;99.90
5492;DHT22;2768;53.540;10.224;2022-12-05T23:17:30;5.10;99.90
5492;DHT22;2768;53.540;10.224;2022-12-05T23:23:25;5.10;99.90
5492;DHT22;2768;53.540;10.224;2022-12-05T23:29:19;5.10;99.90
5492;DHT22;2768;53.540;10.224;2022-12-05T23:35:13;5.10;99.90
5492;DHT22;2768;53.540;10.224;2022-12-05T23:41:11;5.10;99.90
5492;DHT22;2768;53.540;10.224;2022-12-05T23:47:04;5.10;99.90
5492;DHT22;2768;53.540;10.224;2022-12-05T23:52:58;5.10;99.90
5492;DHT22;2768;53.540;10.224;2022-12-05T23:58:54;5.10;99.90
